Time;durP1;ratioP1;P1;durP2;ratioP2;P2;SDS_P1;SDS_P2;PMS_P1;PMS_P2;Temp;Humidity;BMP_temperature;BMP_pressure;BME280_temperature;BME280_humidity;BME280_pressure;Samples;Min_cycle;Max_cycle;Signal;HPM_P1;HPM_P2
2022/01/20 00:01:55;;;;;;;19.65;3.65;;;4.50;99.90;;;;;;5081214;28;20064;-90
2022/01/20 00:23:06;;;;;;;13.75;2.83;;;4.60;99.90;;;;;;5108650;28;20452;-90
2022/01/20 00:26:12;;;;;;;13.00;2.05;;;4.80;99.90;;;;;;5110973;28;20051;-91
2022/01/20 00:28:43;;;;;;;11.85;1.85;;;4.70;99.90;;;;;;5092873;28;20049;-90
2022/01/20 00:38:39;;;;;;;13.85;1.95;;;4.70;99.90;;;;;;5109836;28;20036;-91
2022/01/20 00:41:05;;;;;;;8.55;1.40;;;4.70;99.90;;;;;;5085764;28;20074;-90
2022/01/20 00:43:31;;;;;;;11.23;2.10;;;4.70;99.90;;;;;;5097129;28;20044;-90
2022/01/20 00:45:57;;;;;;;10.50;1.88;;;4.70;99.90;;;;;;5102946;28;20051;-91
2022/01/20 00:48:23;;;;;;;11.93;1.85;;;4.70;99.90;;;;;;5081182;28;20538;-91
2022/01/20 00:50:49;;;;;;;9.82;2.53;;;4.70;99.90;;;;;;5076295;28;20055;-91
2022/01/20 00:53:15;;;;;;;13.85;2.00;;;4.70;99.90;;;;;;5072096;28;20040;-91
2022/01/20 00:55:41;;;;;;;12.77;1.73;;;4.70;99.90;;;;;;5096181;28;20115;-90
2022/01/20 00:58:08;;;;;;;14.02;3.25;;;4.80;99.90;;;;;;5086527;28;20042;-90
2022/01/20 01:00:35;;;;;;;16.45;2.47;;;4.80;99.90;;;;;;5109466;28;20408;-90
2022/01/20 01:03:00;;;;;;;14.27;2.28;;;4.80;99.90;;;;;;5109081;28;20044;-90
2022/01/20 01:05:27;;;;;;;12.20;1.98;;;4.80;99.90;;;;;;5109669;28;20122;-90
2022/01/20 01:07:55;;;;;;;14.52;2.65;;;4.80;99.90;;;;;;5092735;28;20075;-90
2022/01/20 01:10:25;;;;;;;17.70;2.60;;;4.70;99.90;;;;;;5095793;28;20100;-91
2022/01/20 01:12:56;;;;;;;13.93;2.03;;;4.70;99.90;;;;;;5113453;28;20051;-91
2022/01/20 01:15:30;;;;;;;10.65;2.15;;;4.70;99.90;;;;;;5101675;28;20468;-90
2022/01/20 01:23:22;;;;;;;12.38;2.13;;;4.60;99.90;;;;;;5112202;28;20083;-91
2022/01/20 01:25:48;;;;;;;13.05;2.00;;;4.50;99.90;;;;;;5095599;28;20447;-91
2022/01/20 01:28:13;;;;;;;12.55;2.17;;;4.50;99.90;;;;;;5096174;28;20097;-91
2022/01/20 01:31:06;;;;;;;11.05;2.10;;;4.50;99.90;;;;;;5113122;28;20130;-90
2022/01/20 01:33:30;;;;;;;13.95;2.08;;;4.50;99.90;;;;;;5112092;28;20047;-90
2022/01/20 01:35:58;;;;;;;12.13;2.33;;;4.40;99.90;;;;;;5095484;28;20046;-90
2022/01/20 01:40:50;;;;;;;14.27;2.17;;;4.40;99.90;;;;;;5112896;28;20055;-90
2022/01/20 01:43:20;;;;;;;13.57;1.98;;;4.30;99.90;;;;;;5130033;28;20040;-91
2022/01/20 01:45:48;;;;;;;13.73;2.42;;;4.30;99.90;;;;;;5125677;28;20047;-91
2022/01/20 01:48:14;;;;;;;16.55;2.72;;;4.30;99.90;;;;;;5124172;28;20047;-90
2022/01/20 01:50:39;;;;;;;15.73;2.53;;;4.30;99.90;;;;;;5124735;28;20036;-90
2022/01/20 01:53:06;;;;;;;12.27;2.22;;;4.40;99.90;;;;;;5096055;28;20074;-91
2022/01/20 01:55:34;;;;;;;9.32;1.95;;;4.40;99.90;;;;;;5095880;28;20497;-91
2022/01/20 01:58:00;;;;;;;16.27;2.15;;;4.50;99.90;;;;;;5112151;28;20122;-91
2022/01/20 02:00:26;;;;;;;15.82;2.38;;;4.50;99.90;;;;;;5095293;28;20122;-90
2022/01/20 02:02:52;;;;;;;12.68;2.15;;;4.60;99.90;;;;;;5094880;28;20036;-90
2022/01/20 02:05:19;;;;;;;12.20;1.95;;;4.60;99.90;;;;;;5094885;28;20038;-90
2022/01/20 02:18:38;;;;;;;9.18;1.60;;;4.80;99.90;;;;;;5111606;28;20043;-91
2022/01/20 02:21:05;;;;;;;13.32;1.88;;;4.80;99.90;;;;;;5111327;28;20039;-91
2022/01/20 02:23:31;;;;;;;9.73;1.80;;;4.80;99.90;;;;;;5094124;28;20050;-90
2022/01/20 02:25:57;;;;;;;14.40;2.33;;;4.70;99.90;;;;;;5094409;28;20048;-90
2022/01/20 02:28:23;;;;;;;11.13;2.03;;;4.70;99.90;;;;;;5094647;28;20050;-91
2022/01/20 02:30:48;;;;;;;12.25;1.60;;;4.70;99.90;;;;;;5094296;28;20436;-90
2022/01/20 02:33:18;;;;;;;13.27;1.70;;;4.70;99.90;;;;;;5111039;28;20048;-90
2022/01/20 02:35:52;;;;;;;10.82;1.63;;;4.60;99.90;;;;;;5094579;28;20127;-90
2022/01/20 02:38:25;;;;;;;9.18;1.45;;;4.60;99.90;;;;;;5094176;28;20047;-90
2022/01/20 02:46:19;;;;;;;11.05;1.63;;;4.50;99.90;;;;;;5110897;28;20043;-91
2022/01/20 02:48:45;;;;;;;12.80;1.95;;;4.50;99.90;;;;;;5093976;28;20049;-90
2022/01/20 02:51:10;;;;;;;10.00;1.55;;;4.60;99.90;;;;;;5111112;28;20050;-90
2022/01/20 02:53:36;;;;;;;9.40;1.63;;;4.60;99.90;;;;;;5110614;28;20052;-92
2022/01/20 02:56:02;;;;;;;11.85;1.95;;;4.60;99.90;;;;;;5110972;28;20071;-91
2022/01/20 02:58:28;;;;;;;11.25;1.63;;;4.70;99.90;;;;;;5110724;28;20041;-91
2022/01/20 03:00:54;;;;;;;9.02;1.65;;;4.70;99.90;;;;;;5110744;28;20114;-91
2022/01/20 03:03:20;;;;;;;11.07;1.63;;;4.80;99.90;;;;;;5093560;28;20039;-91
2022/01/20 03:05:45;;;;;;;6.82;1.20;;;4.80;99.90;;;;;;5111132;28;20039;-91
2022/01/20 03:08:11;;;;;;;10.65;1.90;;;4.80;99.90;;;;;;5110969;28;20446;-91
2022/01/20 03:10:38;;;;;;;8.52;1.35;;;4.80;99.90;;;;;;5093787;28;20066;-91
2022/01/20 03:13:04;;;;;;;11.40;2.33;;;4.80;99.90;;;;;;5110481;28;20075;-91
2022/01/20 03:15:33;;;;;;;7.60;1.20;;;4.80;99.90;;;;;;5093260;28;20119;-91
2022/01/20 03:17:59;;;;;;;9.45;1.83;;;4.80;99.90;;;;;;5110758;28;20032;-90
2022/01/20 03:20:24;;;;;;;9.73;2.10;;;4.80;99.90;;;;;;5093865;28;20043;-90
2022/01/20 03:22:50;;;;;;;13.73;1.92;;;4.70;99.90;;;;;;5110601;28;20484;-91
2022/01/20 03:25:15;;;;;;;10.85;1.85;;;4.80;99.90;;;;;;5110177;28;20035;-90
2022/01/20 03:27:41;;;;;;;13.35;2.13;;;4.70;99.90;;;;;;5093383;28;20489;-91
2022/01/20 03:30:08;;;;;;;12.90;2.05;;;4.70;99.90;;;;;;5110232;28;20046;-91
2022/01/20 03:32:34;;;;;;;17.17;2.25;;;4.70;99.90;;;;;;5109825;28;20404;-91
2022/01/20 03:35:01;;;;;;;11.85;1.80;;;4.70;99.90;;;;;;5110035;28;20547;-91
2022/01/20 03:37:27;;;;;;;11.98;2.25;;;4.70;99.90;;;;;;5093287;28;20540;-91
2022/01/20 03:39:52;;;;;;;16.77;2.33;;;4.70;99.90;;;;;;5093142;28;20114;-91
2022/01/20 03:42:18;;;;;;;13.98;2.72;;;4.70;99.90;;;;;;5111436;28;20071;-90
2022/01/20 03:44:43;;;;;;;16.60;3.03;;;4.70;99.90;;;;;;5093041;28;20039;-91
2022/01/20 03:47:10;;;;;;;21.38;3.15;;;4.70;99.90;;;;;;5093227;28;20408;-90
2022/01/20 03:49:52;;;;;;;16.42;3.03;;;4.70;99.90;;;;;;5093516;28;20193;-90
2022/01/20 03:52:18;;;;;;;17.80;3.17;;;4.70;99.90;;;;;;5093319;28;20493;-91
2022/01/20 03:54:43;;;;;;;18.15;3.67;;;4.70;99.90;;;;;;5092553;28;20042;-90
2022/01/20 03:57:09;;;;;;;20.98;3.80;;;4.70;99.90;;;;;;5110715;28;20031;-91
2022/01/20 03:59:35;;;;;;;16.92;3.63;;;4.70;99.90;;;;;;5109850;28;20547;-91
2022/01/20 04:02:00;;;;;;;17.95;3.42;;;4.70;99.90;;;;;;5112447;28;20040;-90
2022/01/20 04:04:26;;;;;;;18.95;3.35;;;4.70;99.90;;;;;;5110867;28;20036;-90
2022/01/20 04:06:52;;;;;;;14.65;2.95;;;4.70;99.90;;;;;;5098657;28;20059;-90
2022/01/20 04:09:17;;;;;;;16.73;3.30;;;4.70;99.90;;;;;;5104718;28;20043;-90
2022/01/20 04:11:43;;;;;;;20.00;3.45;;;4.70;99.90;;;;;;5093321;28;20061;-90
2022/01/20 04:14:12;;;;;;;16.20;2.78;;;4.70;99.90;;;;;;5109659;28;20439;-90
2022/01/20 04:19:36;;;;;;;19.58;3.25;;;4.70;99.90;;;;;;5092328;28;20040;-90
2022/01/20 04:22:02;;;;;;;19.13;3.28;;;4.60;99.90;;;;;;5109805;28;20085;-89
2022/01/20 04:24:28;;;;;;;16.75;3.03;;;4.60;99.90;;;;;;5092337;28;20071;-90
2022/01/20 04:26:54;;;;;;;18.15;3.28;;;4.60;99.90;;;;;;5109860;28;20108;-90
2022/01/20 04:29:19;;;;;;;19.25;3.47;;;4.60;99.90;;;;;;5109597;28;20157;-90
2022/01/20 04:31:46;;;;;;;15.25;2.85;;;4.60;99.90;;;;;;5092960;28;20091;-90
2022/01/20 04:34:12;;;;;;;18.73;2.80;;;4.60;99.90;;;;;;5092368;28;20071;-90
2022/01/20 04:36:41;;;;;;;21.65;3.38;;;4.60;99.90;;;;;;5092624;28;20046;-90
2022/01/20 04:39:10;;;;;;;21.08;3.55;;;4.60;99.90;;;;;;5092909;28;20450;-90
2022/01/20 04:41:36;;;;;;;19.60;3.20;;;4.60;99.90;;;;;;5092771;28;20043;-90
2022/01/20 04:44:06;;;;;;;15.52;3.63;;;4.60;99.90;;;;;;5092745;28;20121;-90
2022/01/20 04:46:46;;;;;;;13.82;3.25;;;4.60;99.90;;;;;;5096640;28;20138;-90
2022/01/20 04:57:24;;;;;;;13.70;2.80;;;4.50;99.90;;;;;;5114785;28;20044;-90
2022/01/20 04:59:51;;;;;;;15.85;3.22;;;4.50;99.90;;;;;;5113156;28;20049;-90
2022/01/20 05:02:17;;;;;;;14.65;2.95;;;4.50;99.90;;;;;;5113242;28;20071;-90
2022/01/20 05:04:43;;;;;;;13.65;2.40;;;4.50;99.90;;;;;;5112882;28;20039;-90
2022/01/20 05:07:11;;;;;;;17.27;3.03;;;4.40;99.90;;;;;;5113268;28;20043;-90
2022/01/20 05:09:37;;;;;;;16.65;3.00;;;4.40;99.90;;;;;;5112939;28;20039;-89
2022/01/20 05:12:10;;;;;;;14.65;2.78;;;4.40;99.90;;;;;;5096068;28;20047;-90
2022/01/20 05:14:36;;;;;;;16.85;3.15;;;4.30;99.90;;;;;;5112923;28;20164;-90
2022/01/20 05:17:02;;;;;;;13.63;2.47;;;4.30;99.90;;;;;;5113326;28;20031;-90
2022/01/20 05:19:30;;;;;;;22.10;3.05;;;4.20;99.90;;;;;;5095853;28;20761;-90
2022/01/20 05:21:56;;;;;;;15.13;2.45;;;4.10;99.90;;;;;;5095822;28;20047;-90
2022/01/20 05:24:24;;;;;;;15.75;2.45;;;4.10;99.90;;;;;;5112167;28;20042;-90
2022/01/20 05:26:51;;;;;;;12.40;2.58;;;4.10;99.90;;;;;;5112861;28;20048;-90
2022/01/20 05:29:20;;;;;;;12.73;2.28;;;4.10;99.90;;;;;;5112774;28;20051;-90
2022/01/20 05:31:46;;;;;;;18.17;3.58;;;4.00;99.90;;;;;;5113060;28;20397;-90
2022/01/20 05:34:12;;;;;;;19.50;2.70;;;4.00;99.90;;;;;;5095282;28;20503;-90
2022/01/20 05:36:38;;;;;;;15.18;2.97;;;4.00;99.90;;;;;;5112851;28;20047;-89
2022/01/20 05:39:04;;;;;;;15.43;3.28;;;4.00;99.90;;;;;;5112742;28;20036;-90
2022/01/20 05:41:30;;;;;;;16.00;2.60;;;3.90;99.90;;;;;;5095366;28;20046;-89
2022/01/20 05:43:56;;;;;;;17.05;3.20;;;3.90;99.90;;;;;;5112600;28;20040;-90
2022/01/20 05:46:25;;;;;;;20.88;3.50;;;4.00;99.90;;;;;;5095222;28;20519;-90
2022/01/20 05:48:56;;;;;;;19.40;3.20;;;4.00;99.90;;;;;;5095324;28;20036;-90
2022/01/20 05:51:21;;;;;;;11.38;2.38;;;4.00;99.90;;;;;;5112581;28;20466;-90
2022/01/20 05:53:47;;;;;;;17.15;2.72;;;4.00;99.90;;;;;;5095041;28;20548;-90
2022/01/20 05:56:12;;;;;;;16.20;3.15;;;4.00;99.90;;;;;;5094092;28;20043;-89
2022/01/20 05:58:38;;;;;;;16.85;3.13;;;4.00;99.90;;;;;;5095072;28;20035;-89
2022/01/20 06:01:06;;;;;;;14.23;2.03;;;4.00;99.90;;;;;;5095356;28;20046;-90
2022/01/20 06:03:38;;;;;;;11.88;2.10;;;4.00;99.90;;;;;;5111741;28;20039;-90
2022/01/20 06:06:06;;;;;;;10.90;2.08;;;4.10;99.90;;;;;;5127566;28;20065;-90
2022/01/20 06:08:33;;;;;;;10.52;2.20;;;4.00;99.90;;;;;;5130946;28;20061;-90
2022/01/20 06:10:59;;;;;;;10.88;2.13;;;4.00;99.90;;;;;;5129906;28;20067;-90
2022/01/20 06:13:25;;;;;;;12.63;2.38;;;4.00;99.90;;;;;;5132651;28;20047;-90
2022/01/20 06:15:50;;;;;;;11.00;1.85;;;4.00;99.90;;;;;;5098953;28;20028;-90
2022/01/20 06:18:17;;;;;;;11.18;2.20;;;3.90;99.90;;;;;;5095542;28;20122;-90
2022/01/20 06:20:44;;;;;;;15.68;2.45;;;3.90;99.90;;;;;;5112276;28;20058;-90
2022/01/20 06:23:10;;;;;;;11.23;1.60;;;3.90;99.90;;;;;;5094872;28;20039;-91
2022/01/20 06:25:36;;;;;;;9.90;1.92;;;3.80;99.90;;;;;;5110930;28;20039;-91
2022/01/20 06:28:03;;;;;;;16.75;2.35;;;3.80;99.90;;;;;;5094703;28;20100;-91
2022/01/20 06:30:31;;;;;;;10.98;2.20;;;3.70;99.90;;;;;;5094696;28;20055;-91
2022/01/20 06:32:57;;;;;;;13.82;2.08;;;3.70;99.90;;;;;;5111354;28;20493;-91
2022/01/20 06:35:23;;;;;;;15.95;2.13;;;3.70;99.90;;;;;;5093561;28;20033;-91
2022/01/20 06:37:48;;;;;;;16.65;2.42;;;3.60;99.90;;;;;;5092230;28;20050;-91
2022/01/20 06:40:14;;;;;;;12.02;1.83;;;3.60;99.90;;;;;;5074739;28;20036;-91
2022/01/20 06:42:41;;;;;;;11.05;2.47;;;3.60;99.90;;;;;;5075399;28;20032;-90
2022/01/20 06:45:09;;;;;;;12.98;2.03;;;3.60;99.90;;;;;;5075226;28;20075;-91
2022/01/20 06:47:35;;;;;;;12.90;2.45;;;3.60;99.90;;;;;;5075891;28;20036;-90
2022/01/20 06:50:01;;;;;;;8.50;1.75;;;3.60;99.90;;;;;;5098705;28;20126;-89
2022/01/20 06:52:28;;;;;;;13.43;2.42;;;3.70;99.90;;;;;;5099089;28;20040;-90
2022/01/20 06:54:54;;;;;;;14.30;2.50;;;3.60;99.90;;;;;;5074584;28;20032;-90
2022/01/20 06:57:20;;;;;;;10.73;2.05;;;3.70;99.90;;;;;;5091620;28;20057;-90
2022/01/20 06:59:46;;;;;;;12.13;2.00;;;3.60;99.90;;;;;;5074533;28;20051;-90
2022/01/20 07:02:12;;;;;;;11.88;2.40;;;3.60;99.90;;;;;;5074633;28;20032;-91
2022/01/20 07:04:38;;;;;;;13.57;2.88;;;3.60;99.90;;;;;;5091210;28;20120;-90
2022/01/20 07:07:05;;;;;;;9.48;1.98;;;3.60;99.90;;;;;;5074166;28;20043;-90
2022/01/20 07:09:32;;;;;;;16.23;2.65;;;3.60;99.90;;;;;;5091248;28;20044;-91
2022/01/20 07:11:58;;;;;;;10.35;2.33;;;3.50;99.90;;;;;;5073980;28;20051;-90
2022/01/20 07:14:24;;;;;;;14.18;2.33;;;3.50;99.90;;;;;;5090893;28;20040;-91
2022/01/20 07:16:49;;;;;;;15.55;2.47;;;3.50;99.90;;;;;;5091123;28;20047;-90
2022/01/20 07:19:15;;;;;;;16.38;2.53;;;3.50;99.90;;;;;;5091643;28;20036;-90
2022/01/20 07:21:41;;;;;;;17.55;2.65;;;3.40;99.90;;;;;;5091184;28;20705;-90
2022/01/20 07:24:07;;;;;;;14.27;2.70;;;3.30;99.90;;;;;;5073288;28;20234;-90
2022/01/20 07:26:33;;;;;;;15.65;2.72;;;3.30;99.90;;;;;;5091419;28;20675;-90
2022/01/20 07:28:59;;;;;;;15.32;2.58;;;3.20;99.90;;;;;;5092642;28;20036;-91
2022/01/20 07:31:24;;;;;;;15.95;2.58;;;3.10;99.90;;;;;;5100635;28;20075;-90
2022/01/20 07:33:51;;;;;;;14.88;2.20;;;3.10;99.90;;;;;;5099491;28;20036;-90
2022/01/20 07:36:17;;;;;;;14.18;2.95;;;3.20;99.90;;;;;;5101767;28;20036;-90
2022/01/20 07:38:43;;;;;;;14.38;2.55;;;3.10;99.90;;;;;;5083191;28;20405;-91
2022/01/20 07:41:08;;;;;;;14.95;2.50;;;3.10;99.90;;;;;;5094814;28;20039;-90
2022/01/20 07:43:34;;;;;;;15.70;2.75;;;3.20;99.90;;;;;;5090504;28;20123;-90
2022/01/20 07:45:59;;;;;;;13.95;2.53;;;3.20;99.90;;;;;;5090815;28;20047;-90
2022/01/20 07:48:25;;;;;;;12.48;2.35;;;3.20;99.90;;;;;;5090551;28;20071;-90
2022/01/20 07:50:51;;;;;;;18.00;3.10;;;3.20;99.90;;;;;;5076601;28;20089;-90
2022/01/20 07:53:17;;;;;;;13.65;2.40;;;3.20;99.90;;;;;;5087758;28;20523;-91
2022/01/20 07:55:42;;;;;;;14.07;2.60;;;3.20;99.90;;;;;;5099811;28;20032;-90
2022/01/20 07:58:08;;;;;;;13.48;2.17;;;3.20;99.90;;;;;;5101593;28;20452;-90
2022/01/20 08:00:34;;;;;;;15.95;2.72;;;3.20;99.90;;;;;;5082925;28;20115;-90
2022/01/20 08:02:59;;;;;;;15.88;2.60;;;3.30;99.90;;;;;;5082758;28;20047;-91
2022/01/20 08:05:25;;;;;;;12.73;2.00;;;3.40;99.90;;;;;;5101214;28;20040;-90
2022/01/20 08:07:51;;;;;;;10.85;2.33;;;3.40;99.90;;;;;;5099700;28;20486;-90
2022/01/20 08:10:16;;;;;;;11.55;2.05;;;3.40;99.90;;;;;;5099006;28;20062;-90
2022/01/20 08:12:43;;;;;;;15.18;2.33;;;3.40;99.90;;;;;;5101054;28;20090;-90
2022/01/20 08:15:12;;;;;;;14.52;2.47;;;3.40;99.90;;;;;;5101263;28;20040;-90
2022/01/20 08:17:42;;;;;;;11.77;2.65;;;3.40;99.90;;;;;;5100106;28;20501;-90
2022/01/20 08:20:08;;;;;;;12.70;2.25;;;3.40;99.90;;;;;;5093084;28;20390;-91
2022/01/20 08:22:34;;;;;;;13.27;2.53;;;3.40;99.90;;;;;;5075325;28;20478;-90
2022/01/20 08:25:09;;;;;;;10.55;2.55;;;3.40;99.90;;;;;;5092156;28;20128;-90
2022/01/20 08:27:37;;;;;;;14.73;2.38;;;3.30;99.90;;;;;;5078648;28;20043;-90
2022/01/20 08:30:05;;;;;;;12.88;2.35;;;3.30;99.90;;;;;;5103181;28;20047;-90
2022/01/20 08:32:31;;;;;;;15.90;2.60;;;3.30;99.90;;;;;;5097753;28;20036;-90
2022/01/20 08:34:57;;;;;;;14.00;2.30;;;3.40;99.90;;;;;;5114409;28;20039;-90
2022/01/20 08:37:22;;;;;;;18.55;3.55;;;3.40;99.90;;;;;;5097839;28;20073;-90
2022/01/20 08:39:48;;;;;;;13.80;2.33;;;3.40;99.90;;;;;;5097821;28;20034;-90
2022/01/20 08:42:14;;;;;;;15.05;2.85;;;3.40;99.90;;;;;;5097373;28;20473;-90
2022/01/20 08:44:40;;;;;;;13.68;3.15;;;3.50;99.90;;;;;;5114417;28;20122;-90
2022/01/20 08:47:17;;;;;;;13.77;2.47;;;3.50;99.90;;;;;;5097405;28;20553;-90
2022/01/20 08:49:45;;;;;;;15.25;2.85;;;3.60;99.90;;;;;;5114567;28;20044;-90
2022/01/20 08:52:11;;;;;;;14.45;2.67;;;3.60;99.90;;;;;;5097384;28;20047;-90
2022/01/20 08:54:36;;;;;;;12.45;2.50;;;3.70;99.90;;;;;;5096904;28;20100;-91
2022/01/20 08:57:02;;;;;;;17.90;2.92;;;3.70;99.90;;;;;;5097472;28;20031;-91
2022/01/20 08:59:28;;;;;;;12.15;2.33;;;3.70;99.90;;;;;;5110631;28;20051;-90
2022/01/20 09:01:54;;;;;;;12.65;2.88;;;3.80;99.90;;;;;;5104409;28;20031;-90
2022/01/20 09:04:20;;;;;;;18.88;3.22;;;3.80;99.90;;;;;;5087838;28;20071;-90
2022/01/20 09:06:45;;;;;;;13.80;2.95;;;3.90;99.90;;;;;;5112442;28;20115;-90
2022/01/20 09:09:11;;;;;;;13.63;2.83;;;4.00;99.90;;;;;;5104727;28;20039;-90
2022/01/20 09:11:44;;;;;;;18.42;3.78;;;4.10;99.90;;;;;;5123873;28;20039;-90
2022/01/20 09:16:53;;;;;;;12.40;2.55;;;4.20;99.90;;;;;;5114076;28;20524;-90
2022/01/20 09:19:19;;;;;;;17.48;3.40;;;4.30;99.90;;;;;;5114246;28;20074;-90
2022/01/20 09:21:45;;;;;;;14.55;2.88;;;4.30;99.90;;;;;;5096647;28;20446;-90
2022/01/20 09:24:11;;;;;;;18.63;3.03;;;4.40;99.90;;;;;;5096347;28;20573;-90
2022/01/20 09:26:36;;;;;;;15.98;3.25;;;4.50;99.90;;;;;;5097006;28;20043;-90
2022/01/20 09:29:02;;;;;;;16.52;3.00;;;4.50;99.90;;;;;;5113848;28;20074;-90
2022/01/20 09:31:30;;;;;;;16.58;3.05;;;4.50;99.90;;;;;;5113969;28;20092;-90
2022/01/20 09:33:56;;;;;;;17.25;3.22;;;4.50;99.90;;;;;;5096072;28;20047;-91
2022/01/20 09:36:23;;;;;;;15.00;3.00;;;4.50;99.90;;;;;;5097009;28;20619;-90
2022/01/20 09:38:49;;;;;;;12.93;2.90;;;4.50;99.90;;;;;;5096542;28;20039;-90
2022/01/20 09:41:15;;;;;;;12.77;2.35;;;4.50;99.90;;;;;;5089080;28;20047;-90
2022/01/20 09:43:41;;;;;;;13.70;3.03;;;4.50;99.90;;;;;;5086555;28;20031;-89
2022/01/20 09:46:06;;;;;;;15.23;2.83;;;4.50;99.90;;;;;;5113426;28;20039;-90
2022/01/20 09:48:32;;;;;;;12.63;2.60;;;4.40;99.90;;;;;;5096032;28;20039;-90
2022/01/20 09:51:00;;;;;;;16.98;2.25;;;4.50;99.90;;;;;;5112952;28;20043;-90
2022/01/20 09:53:27;;;;;;;15.85;3.10;;;4.50;99.90;;;;;;5113002;28;20047;-90
2022/01/20 09:55:53;;;;;;;14.77;2.63;;;4.60;99.90;;;;;;5108158;28;20107;-91
2022/01/20 09:58:19;;;;;;;12.85;2.72;;;4.70;99.90;;;;;;5092654;28;20039;-90
2022/01/20 10:00:46;;;;;;;11.70;2.67;;;4.70;99.90;;;;;;5096011;28;20039;-90
2022/01/20 10:03:17;;;;;;;13.40;3.80;;;4.80;99.90;;;;;;5095599;28;20507;-91
2022/01/20 10:05:52;;;;;;;22.00;3.35;;;4.90;99.90;;;;;;5113363;28;20047;-90
2022/01/20 10:08:23;;;;;;;12.27;3.17;;;4.90;99.90;;;;;;5096265;28;20447;-90
2022/01/20 10:10:53;;;;;;;14.07;2.50;;;4.80;99.90;;;;;;5095960;28;20405;-90
2022/01/20 10:13:30;;;;;;;12.07;2.15;;;4.80;99.90;;;;;;5095302;28;20069;-90
2022/01/20 10:16:07;;;;;;;9.75;1.50;;;4.80;99.90;;;;;;5112876;28;20039;-89
2022/01/20 10:18:44;;;;;;;9.35;1.60;;;4.70;99.90;;;;;;5095928;28;20046;-90
2022/01/20 10:21:11;;;;;;;8.35;1.35;;;4.70;99.90;;;;;;5092941;28;20461;-89
2022/01/20 10:23:45;;;;;;;11.00;1.90;;;4.60;99.90;;;;;;5091738;28;20047;-90
2022/01/20 10:26:16;;;;;;;10.45;2.10;;;4.60;99.90;;;;;;5093475;28;20065;-90
2022/01/20 10:28:56;;;;;;;11.35;2.22;;;4.60;99.90;;;;;;5092083;28;20036;-91
2022/01/20 10:31:33;;;;;;;7.93;1.42;;;4.70;99.90;;;;;;5075252;28;20036;-90
2022/01/20 10:33:59;;;;;;;11.38;1.90;;;4.80;99.90;;;;;;5074601;28;20044;-90
2022/01/20 10:36:24;;;;;;;10.23;1.90;;;4.90;99.90;;;;;;5092061;28;20028;-90
2022/01/20 10:38:58;;;;;;;13.07;2.03;;;5.00;99.90;;;;;;5074964;28;20481;-89
2022/01/20 10:41:28;;;;;;;12.27;2.05;;;5.00;99.90;;;;;;5074898;28;20119;-90
2022/01/20 10:44:05;;;;;;;11.07;1.80;;;5.00;99.90;;;;;;5092476;28;20413;-89
2022/01/20 10:46:49;;;;;;;14.85;2.28;;;5.00;99.90;;;;;;5091750;28;20566;-90
2022/01/20 10:49:16;;;;;;;11.50;2.00;;;4.90;99.90;;;;;;5074679;28;20489;-89
2022/01/20 10:51:43;;;;;;;14.52;2.35;;;4.90;99.90;;;;;;5093088;28;20044;-89
2022/01/20 10:54:13;;;;;;;13.40;2.35;;;4.90;99.90;;;;;;5074700;28;20036;-90
2022/01/20 10:56:54;;;;;;;8.00;1.95;;;4.90;99.90;;;;;;5075157;28;20036;-90
2022/01/20 10:59:21;;;;;;;11.13;2.28;;;4.90;99.90;;;;;;5074535;28;20032;-90
2022/01/20 11:02:05;;;;;;;10.00;1.90;;;4.80;99.90;;;;;;5074881;28;20036;-90
2022/01/20 11:04:31;;;;;;;8.27;1.63;;;4.80;99.90;;;;;;5092820;28;20075;-90
2022/01/20 11:07:01;;;;;;;10.82;1.70;;;4.80;99.90;;;;;;5075048;28;20460;-90
2022/01/20 11:09:28;;;;;;;13.10;1.95;;;4.80;99.90;;;;;;5091183;28;20047;-90
2022/01/20 11:11:55;;;;;;;11.55;2.03;;;4.90;99.90;;;;;;5092605;28;20055;-90
2022/01/20 11:14:21;;;;;;;12.35;2.53;;;5.00;99.90;;;;;;5074129;28;20496;-90
2022/01/20 11:16:47;;;;;;;9.50;1.60;;;5.10;99.90;;;;;;5085146;28;20032;-91
2022/01/20 11:19:21;;;;;;;8.70;1.77;;;5.20;99.90;;;;;;5097601;28;20508;-90
2022/01/20 11:21:48;;;;;;;10.48;2.15;;;5.30;99.90;;;;;;5085147;28;20032;-92
2022/01/20 11:24:22;;;;;;;11.52;2.20;;;5.40;99.90;;;;;;5075173;28;20491;-91
2022/01/20 11:26:59;;;;;;;12.90;2.08;;;5.60;99.90;;;;;;5092382;28;20066;-91
2022/01/20 11:29:40;;;;;;;11.45;2.17;;;5.70;99.90;;;;;;5091560;28;20055;-90
2022/01/20 11:32:23;;;;;;;16.13;3.67;;;5.80;99.90;;;;;;5074221;28;20555;-90
2022/01/20 11:35:04;;;;;;;12.93;2.38;;;6.00;99.90;;;;;;5090605;28;20048;-90
2022/01/20 11:37:34;;;;;;;10.73;2.20;;;6.20;99.90;;;;;;5092138;28;20074;-91
2022/01/20 11:40:15;;;;;;;11.57;2.42;;;6.50;99.90;;;;;;5090708;28;20036;-91
2022/01/20 11:42:41;;;;;;;16.52;3.55;;;6.80;99.90;;;;;;5074267;28;20028;-90
2022/01/20 11:45:24;;;;;;;17.73;4.63;;;7.00;99.90;;;;;;5074883;28;20040;-90
2022/01/20 11:47:49;;;;;;;15.85;3.30;;;7.40;99.90;;;;;;5092177;28;20478;-90
2022/01/20 11:50:17;;;;;;;16.55;2.95;;;7.60;99.90;;;;;;5100504;28;20050;-89
2022/01/20 11:52:42;;;;;;;16.65;2.63;;;7.90;99.90;;;;;;5102525;28;20040;-90
2022/01/20 11:55:14;;;;;;;16.13;2.72;;;8.10;99.90;;;;;;5089772;28;20032;-89
2022/01/20 11:57:40;;;;;;;12.95;2.97;;;8.10;99.90;;;;;;5092388;28;20045;-89
2022/01/20 12:00:22;;;;;;;17.90;3.30;;;7.90;99.90;;;;;;5092040;28;20040;-89
2022/01/20 12:02:48;;;;;;;16.67;3.20;;;7.80;99.90;;;;;;5090972;28;20083;-89
2022/01/20 12:05:27;;;;;;;14.10;3.05;;;7.60;99.90;;;;;;5090179;28;20039;-89
2022/01/20 12:08:18;;;;;;;16.63;3.95;;;7.40;99.90;;;;;;5090740;28;20048;-90
2022/01/20 12:10:59;;;;;;;15.57;4.68;;;7.30;99.90;;;;;;5092061;28;20089;-90
2022/01/20 12:13:25;;;;;;;16.05;3.58;;;7.20;99.90;;;;;;5104586;28;20085;-90
2022/01/20 12:15:57;;;;;;;16.48;4.68;;;7.10;99.90;;;;;;5092601;28;20035;-89
2022/01/20 12:18:23;;;;;;;21.10;4.10;;;7.10;99.90;;;;;;5109743;28;20485;-89
2022/01/20 12:20:49;;;;;;;13.93;2.90;;;7.10;99.90;;;;;;5112115;28;20042;-90
2022/01/20 12:23:15;;;;;;;11.70;2.60;;;7.10;99.90;;;;;;5110285;28;20089;-89
2022/01/20 12:25:40;;;;;;;16.58;3.53;;;7.00;99.90;;;;;;5093649;28;20484;-90
2022/01/20 12:28:11;;;;;;;11.43;3.58;;;6.90;99.90;;;;;;5104480;28;20071;-90
2022/01/20 12:30:44;;;;;;;16.58;3.25;;;6.90;99.90;;;;;;5084003;28;20039;-90
2022/01/20 12:33:13;;;;;;;17.25;3.13;;;7.70;99.90;;;;;;5101882;28;20043;-90
2022/01/20 12:35:41;;;;;;;17.23;3.33;;;9.30;99.90;;;;;;5082261;28;20032;-90
2022/01/20 12:38:22;;;;;;;13.63;3.08;;;11.00;99.90;;;;;;5082352;28;20089;-90
2022/01/20 12:41:26;;;;;;;12.63;2.75;;;12.50;99.90;;;;;;5083566;28;20051;-90
2022/01/20 12:43:55;;;;;;;;;;;13.90;97.50;;;;;;5069430;28;20043;-90
2022/01/20 12:46:23;;;;;;;16.58;4.18;;;14.90;94.00;;;;;;5101455;28;19938;-90
2022/01/20 12:49:09;;;;;;;12.38;2.80;;;15.80;94.50;;;;;;5099085;28;20545;-90
2022/01/20 12:51:38;;;;;;;13.85;3.13;;;16.40;86.60;;;;;;5090359;28;20028;-90
2022/01/20 12:54:10;;;;;;;12.77;2.90;;;16.50;84.10;;;;;;5091021;28;20044;-91
2022/01/20 12:56:38;;;;;;;13.63;2.67;;;16.50;76.10;;;;;;5073371;28;20036;-90
2022/01/20 12:59:05;;;;;;;14.15;2.72;;;15.90;75.30;;;;;;5089781;28;20080;-90
2022/01/20 13:01:44;;;;;;;13.07;3.00;;;15.20;73.70;;;;;;5073406;28;20044;-90
2022/01/20 13:04:13;;;;;;;13.23;3.08;;;14.40;72.70;;;;;;5097138;28;20488;-90
2022/01/20 13:06:51;;;;;;;15.05;3.00;;;13.70;74.30;;;;;;5087134;28;20039;-90
2022/01/20 13:09:19;;;;;;;12.73;3.17;;;13.00;73.70;;;;;;5087530;28;20043;-90
2022/01/20 13:12:03;;;;;;;14.65;2.90;;;12.30;75.30;;;;;;5109727;28;20065;-90
2022/01/20 13:14:50;;;;;;;13.77;3.33;;;12.00;75.40;;;;;;5113591;28;20071;-90
2022/01/20 13:17:27;;;;;;;16.70;3.00;;;12.70;77.30;;;;;;5114984;28;20046;-90
2022/01/20 13:19:55;;;;;;;15.50;3.53;;;12.60;73.50;;;;;;5114907;28;20492;-89
2022/01/20 13:22:56;;;;;;;13.70;3.13;;;12.10;74.30;;;;;;5114938;28;20520;-90
2022/01/20 13:25:28;;;;;;;17.00;3.88;;;11.60;73.40;;;;;;5114360;28;20386;-90
2022/01/20 13:28:02;;;;;;;14.35;3.40;;;11.40;77.30;;;;;;5114714;27;20062;-90
2022/01/20 13:30:36;;;;;;;16.13;3.70;;;11.30;76.20;;;;;;5113485;28;20127;-90
2022/01/20 13:33:09;;;;;;;14.48;3.28;;;11.00;76.70;;;;;;5096419;28;20070;-89
2022/01/20 13:35:44;;;;;;;12.30;2.72;;;10.60;77.10;;;;;;5096865;28;20053;-89
2022/01/20 13:38:12;;;;;;;13.35;3.08;;;10.20;77.30;;;;;;5114519;28;20477;-89
2022/01/20 13:40:40;;;;;;;16.83;3.08;;;9.80;79.30;;;;;;5114595;28;20070;-89
2022/01/20 13:45:45;;;;;;;14.60;2.80;;;9.20;80.90;;;;;;5113379;28;20051;-89
2022/01/20 13:48:12;;;;;;;12.93;2.85;;;9.00;82.10;;;;;;5113359;28;20131;-89
2022/01/20 13:50:40;;;;;;;11.15;2.58;;;8.90;83.00;;;;;;5114250;28;20057;-89
2022/01/20 13:53:15;;;;;;;12.82;2.53;;;9.90;85.90;;;;;;5095961;28;20061;-90
2022/01/20 13:55:47;;;;;;;12.25;2.83;;;11.60;85.00;;;;;;5096527;28;20572;-90
2022/01/20 13:58:23;;;;;;;10.13;2.30;;;13.50;81.50;;;;;;5096003;28;20039;-90
2022/01/20 14:00:49;;;;;;;12.13;3.00;;;15.00;76.40;;;;;;5095951;28;20053;-90
2022/01/20 14:03:15;;;;;;;10.85;2.65;;;16.20;72.40;;;;;;5112203;28;20071;-89